Time;durP1;ratioP1;P1;durP2;ratioP2;P2;SDS_P1;SDS_P2;PMS_P1;PMS_P2;Temp;Humidity;BMP_temperature;BMP_pressure;BME280_temperature;BME280_humidity;BME280_pressure;Samples;Min_cycle;Max_cycle;Signal;HPM_P1;HPM_P2
2022/03/06 00:00:12;;;;;;;25.30;9.03;;;22.60;93.00;;;;;;5056145;28;20188;-77
2022/03/06 00:02:43;;;;;;;28.30;9.23;;;22.80;92.70;;;;;;5054582;28;20180;-75
2022/03/06 00:05:11;;;;;;;32.27;8.73;;;23.00;92.50;;;;;;5055315;28;20215;-73
2022/03/06 00:07:41;;;;;;;28.10;7.43;;;23.00;92.30;;;;;;5044457;28;20205;-77
2022/03/06 00:10:11;;;;;;;23.90;6.73;;;23.00;92.00;;;;;;5044730;28;20180;-74
2022/03/06 00:12:39;;;;;;;36.30;6.97;;;23.00;91.60;;;;;;5048533;28;20177;-78
2022/03/06 00:15:07;;;;;;;33.50;5.83;;;23.10;92.10;;;;;;5035779;28;20191;-77
2022/03/06 00:17:34;;;;;;;28.90;6.77;;;23.10;91.80;;;;;;5040484;28;20177;-77
2022/03/06 00:20:08;;;;;;;25.47;7.83;;;23.00;91.80;;;;;;5035027;28;20169;-78
2022/03/06 00:22:37;;;;;;;22.27;6.00;;;23.10;91.80;;;;;;5050462;28;20165;-79
2022/03/06 00:25:05;;;;;;;25.40;5.80;;;23.00;91.80;;;;;;5035658;28;20172;-80
2022/03/06 00:27:33;;;;;;;31.70;6.73;;;23.10;91.90;;;;;;5042996;28;20299;-77
2022/03/06 00:30:00;;;;;;;21.77;4.87;;;23.20;91.60;;;;;;5050131;28;20226;-78
2022/03/06 00:32:28;;;;;;;28.23;4.50;;;23.20;90.80;;;;;;5051732;28;20198;-78
2022/03/06 00:34:55;;;;;;;24.73;4.40;;;23.20;90.80;;;;;;5042334;28;20239;-78
2022/03/06 00:37:25;;;;;;;20.60;5.43;;;23.30;90.40;;;;;;5055141;28;20179;-77
2022/03/06 00:39:53;;;;;;;28.20;4.57;;;23.60;90.00;;;;;;5054403;28;20172;-75
2022/03/06 00:42:23;;;;;;;30.33;4.17;;;23.50;89.40;;;;;;5047110;28;20168;-79
2022/03/06 00:44:52;;;;;;;16.87;3.77;;;23.50;89.20;;;;;;5041421;28;20181;-78
2022/03/06 00:47:19;;;;;;;20.23;4.87;;;23.50;90.40;;;;;;5043648;28;20338;-77
2022/03/06 00:49:47;;;;;;;23.27;4.73;;;23.70;88.70;;;;;;5054597;28;20641;-84
2022/03/06 00:52:14;;;;;;;20.47;3.37;;;23.80;88.50;;;;;;5054579;28;20172;-80
2022/03/06 00:54:42;;;;;;;21.27;3.83;;;24.00;87.50;;;;;;5037282;28;20272;-80
2022/03/06 00:57:09;;;;;;;12.57;2.90;;;24.40;86.90;;;;;;5045414;28;20230;-74
2022/03/06 00:59:37;;;;;;;15.87;3.00;;;24.50;84.60;;;;;;5046967;28;20188;-74
2022/03/06 01:02:06;;;;;;;12.83;2.60;;;24.50;85.80;;;;;;5045745;28;20176;-76
2022/03/06 01:04:37;;;;;;;9.37;2.37;;;24.40;84.00;;;;;;5046521;28;20570;-77
2022/03/06 01:07:14;;;;;;;12.97;2.67;;;24.10;85.20;;;;;;5048239;28;20261;-74
2022/03/06 01:09:44;;;;;;;12.47;2.63;;;23.90;86.20;;;;;;5055553;28;20631;-75
2022/03/06 01:12:13;;;;;;;13.43;2.40;;;23.70;86.70;;;;;;5056970;28;20206;-73
2022/03/06 01:14:46;;;;;;;10.67;2.30;;;23.90;87.90;;;;;;5055904;28;20184;-87
2022/03/06 01:17:16;;;;;;;13.93;2.33;;;23.70;86.80;;;;;;5055069;28;20180;-73
2022/03/06 01:19:44;;;;;;;7.63;1.90;;;23.60;87.70;;;;;;5053812;28;20218;-84
2022/03/06 01:22:11;;;;;;;9.93;1.93;;;23.20;87.70;;;;;;5053775;28;20164;-76
2022/03/06 01:24:39;;;;;;;11.47;2.00;;;23.10;88.40;;;;;;5048658;28;20202;-75
2022/03/06 01:27:09;;;;;;;7.90;1.70;;;23.10;88.90;;;;;;5052277;28;20211;-75
2022/03/06 01:29:37;;;;;;;7.53;2.07;;;23.10;88.80;;;;;;5051486;28;20279;-75
2022/03/06 01:32:05;;;;;;;6.67;1.93;;;23.30;88.80;;;;;;5052085;28;20234;-74
2022/03/06 01:34:32;;;;;;;15.90;2.30;;;23.50;87.60;;;;;;5047192;28;20264;-77
2022/03/06 01:37:02;;;;;;;9.03;2.40;;;23.80;86.40;;;;;;5050864;28;20277;-76
2022/03/06 01:39:30;;;;;;;9.67;2.10;;;24.30;85.10;;;;;;5049727;28;20275;-81
2022/03/06 01:41:57;;;;;;;9.73;2.03;;;25.00;85.30;;;;;;5051431;28;20195;-72
2022/03/06 01:44:25;;;;;;;8.50;2.50;;;25.30;84.00;;;;;;5052350;28;20207;-76
2022/03/06 01:46:52;;;;;;;7.47;2.00;;;25.10;84.70;;;;;;5051826;28;20203;-75
2022/03/06 01:49:20;;;;;;;9.57;2.67;;;24.70;84.60;;;;;;5046263;28;20180;-74
2022/03/06 01:51:48;;;;;;;12.57;2.93;;;24.40;85.50;;;;;;5047197;28;20180;-74
2022/03/06 01:54:15;;;;;;;11.90;2.63;;;24.20;86.20;;;;;;5049053;28;20179;-74
2022/03/06 01:56:43;;;;;;;10.50;2.40;;;24.00;86.70;;;;;;5050666;28;20222;-75
2022/03/06 01:59:11;;;;;;;11.77;3.43;;;24.10;86.00;;;;;;5051686;28;20210;-75
2022/03/06 02:01:38;;;;;;;12.03;2.37;;;24.10;86.70;;;;;;5045804;28;20246;-73
2022/03/06 02:04:06;;;;;;;13.00;2.50;;;24.30;86.10;;;;;;5051915;28;20192;-78
2022/03/06 02:06:34;;;;;;;10.27;2.87;;;24.40;85.00;;;;;;5046458;28;20219;-72
2022/03/06 02:09:01;;;;;;;13.17;3.17;;;24.30;84.10;;;;;;5050950;28;20696;-76
2022/03/06 02:11:30;;;;;;;12.70;2.70;;;24.40;84.70;;;;;;5048379;28;20176;-81
2022/03/06 02:13:59;;;;;;;7.23;2.00;;;24.50;84.70;;;;;;5046234;28;20194;-76
2022/03/06 02:16:26;;;;;;;4.97;1.60;;;24.50;83.50;;;;;;5046756;28;20183;-78
2022/03/06 02:18:53;;;;;;;7.73;1.77;;;24.50;83.20;;;;;;5051382;28;20266;-77
2022/03/06 02:21:21;;;;;;;8.43;2.47;;;24.40;83.50;;;;;;5042479;28;20530;-75
2022/03/06 02:23:48;;;;;;;8.23;2.20;;;24.20;83.70;;;;;;5050191;28;20168;-77
2022/03/06 02:26:16;;;;;;;9.07;2.37;;;24.20;84.80;;;;;;5049691;28;20176;-79
2022/03/06 02:28:43;;;;;;;8.80;2.17;;;24.20;84.50;;;;;;5048922;28;20306;-73
2022/03/06 02:31:12;;;;;;;8.30;2.27;;;24.10;84.90;;;;;;5047790;28;20209;-76
2022/03/06 02:33:40;;;;;;;12.13;2.43;;;24.10;85.00;;;;;;5049835;28;20187;-75
2022/03/06 02:36:07;;;;;;;9.00;2.03;;;24.10;84.30;;;;;;5046430;28;20184;-75
2022/03/06 02:38:34;;;;;;;7.00;1.87;;;24.00;84.70;;;;;;5049780;28;20183;-78
2022/03/06 02:41:02;;;;;;;6.63;2.00;;;24.10;84.40;;;;;;5051525;28;20184;-75
2022/03/06 02:43:29;;;;;;;9.50;2.20;;;24.10;83.90;;;;;;5050858;28;20180;-75
2022/03/06 02:45:57;;;;;;;8.40;2.43;;;24.00;85.20;;;;;;5051850;28;20186;-74
2022/03/06 02:48:25;;;;;;;10.87;2.93;;;23.80;86.50;;;;;;5040617;28;20976;-75
2022/03/06 02:50:53;;;;;;;11.23;2.40;;;23.90;87.50;;;;;;5044746;28;20689;-80
2022/03/06 02:53:22;;;;;;;12.97;2.20;;;23.70;86.60;;;;;;5050409;28;20180;-74
2022/03/06 02:55:50;;;;;;;10.23;2.23;;;23.80;87.30;;;;;;5049315;28;20652;-77
2022/03/06 02:58:17;;;;;;;8.50;2.57;;;23.50;87.00;;;;;;5050985;28;21093;-75
2022/03/06 03:00:45;;;;;;;10.67;2.60;;;23.30;88.40;;;;;;5044585;28;20185;-77
2022/03/06 03:03:12;;;;;;;9.33;2.10;;;23.20;89.20;;;;;;5050621;28;20188;-79
2022/03/06 03:05:39;;;;;;;10.33;2.30;;;22.90;89.50;;;;;;5050898;28;20583;-74
2022/03/06 03:08:07;;;;;;;12.80;3.43;;;22.80;90.20;;;;;;5051629;28;20302;-77
2022/03/06 03:10:34;;;;;;;10.80;3.10;;;22.90;90.40;;;;;;5052096;28;20176;-75
2022/03/06 03:13:02;;;;;;;8.10;2.50;;;22.90;90.10;;;;;;5050957;28;20183;-77
2022/03/06 03:15:29;;;;;;;7.30;2.97;;;23.00;89.40;;;;;;5049594;28;20807;-86
2022/03/06 03:17:57;;;;;;;8.80;2.40;;;23.10;88.90;;;;;;5045665;28;20187;-78
2022/03/06 03:20:24;;;;;;;11.10;2.10;;;23.00;89.00;;;;;;5046705;28;20200;-75
2022/03/06 03:22:51;;;;;;;9.83;2.33;;;22.80;89.80;;;;;;5042973;28;20180;-79
2022/03/06 03:25:19;;;;;;;9.90;2.27;;;22.70;90.50;;;;;;5050305;28;20188;-75
2022/03/06 03:27:46;;;;;;;8.90;2.83;;;22.80;91.10;;;;;;5050034;28;20208;-80
2022/03/06 03:30:14;;;;;;;7.27;2.20;;;22.90;90.60;;;;;;5051170;28;20180;-76
2022/03/06 03:32:41;;;;;;;7.27;2.80;;;23.10;89.90;;;;;;5045488;28;20266;-77
2022/03/06 03:35:09;;;;;;;7.37;2.67;;;23.30;89.80;;;;;;5055037;28;20217;-75
2022/03/06 03:37:37;;;;;;;8.27;2.63;;;23.30;89.10;;;;;;5051950;28;20662;-78
2022/03/06 03:40:06;;;;;;;9.77;2.97;;;23.30;89.60;;;;;;5053532;28;20542;-77
2022/03/06 03:42:34;;;;;;;8.13;2.37;;;23.30;89.40;;;;;;5048257;28;20527;-74
2022/03/06 03:45:02;;;;;;;11.63;2.77;;;23.40;89.40;;;;;;5053277;28;20212;-80
2022/03/06 03:47:29;;;;;;;10.97;2.53;;;23.50;88.90;;;;;;5048875;28;20214;-83
2022/03/06 03:49:56;;;;;;;12.63;3.03;;;23.60;88.60;;;;;;5050476;28;20670;-78
2022/03/06 03:52:24;;;;;;;12.07;2.93;;;23.50;88.90;;;;;;5041181;28;20180;-77
2022/03/06 03:54:52;;;;;;;11.93;2.77;;;23.70;89.30;;;;;;5053630;28;20176;-80
2022/03/06 03:57:19;;;;;;;9.10;2.10;;;24.00;88.40;;;;;;5055308;28;20180;-80
2022/03/06 03:59:46;;;;;;;11.43;1.90;;;24.30;86.90;;;;;;5046869;28;20591;-78
2022/03/06 04:02:14;;;;;;;10.00;2.17;;;24.10;85.80;;;;;;5054788;28;20547;-81
2022/03/06 04:04:41;;;;;;;7.27;1.80;;;24.00;87.00;;;;;;5054579;28;20274;-77
2022/03/06 04:07:09;;;;;;;8.13;1.93;;;23.70;87.50;;;;;;5054749;28;20253;-78
2022/03/06 04:09:36;;;;;;;13.10;2.57;;;23.30;88.60;;;;;;5044776;28;20192;-81
2022/03/06 04:12:04;;;;;;;14.73;3.17;;;23.10;90.40;;;;;;5042562;28;20168;-77
2022/03/06 04:14:32;;;;;;;9.87;2.87;;;22.80;91.50;;;;;;5054636;28;20187;-74
2022/03/06 04:16:59;;;;;;;16.47;3.83;;;22.50;92.90;;;;;;5055187;28;20634;-79
2022/03/06 04:19:26;;;;;;;8.73;3.93;;;22.30;94.00;;;;;;5055070;28;20176;-78
2022/03/06 04:21:54;;;;;;;16.73;4.57;;;22.00;94.70;;;;;;5054077;28;20176;-79
2022/03/06 04:24:21;;;;;;;14.93;5.13;;;21.90;95.10;;;;;;5050832;28;20208;-82
2022/03/06 04:26:49;;;;;;;10.80;5.50;;;21.80;95.50;;;;;;5053419;28;20168;-83
2022/03/06 04:29:16;;;;;;;8.70;5.60;;;21.80;95.70;;;;;;5049794;28;20230;-79
2022/03/06 04:31:43;;;;;;;14.57;7.07;;;21.70;95.70;;;;;;5043993;28;20207;-78
2022/03/06 04:34:11;;;;;;;11.80;6.53;;;21.70;95.90;;;;;;5051174;28;20649;-83
2022/03/06 04:36:38;;;;;;;15.10;6.60;;;21.60;96.00;;;;;;5053140;28;20188;-83
2022/03/06 04:39:06;;;;;;;13.63;6.97;;;21.60;96.00;;;;;;5053423;28;20180;-81
2022/03/06 04:41:34;;;;;;;13.77;8.23;;;21.60;96.00;;;;;;5054793;28;20160;-84
2022/03/06 04:44:01;;;;;;;14.67;7.40;;;21.70;95.90;;;;;;5053935;28;20622;-83
2022/03/06 04:46:28;;;;;;;16.13;7.73;;;21.70;96.00;;;;;;5054626;28;20179;-77
2022/03/06 04:48:56;;;;;;;14.10;7.40;;;21.60;95.80;;;;;;5052106;28;20265;-77
2022/03/06 04:51:23;;;;;;;12.33;6.50;;;21.60;95.70;;;;;;5043247;28;20564;-75
2022/03/06 04:53:50;;;;;;;12.57;7.13;;;21.60;95.70;;;;;;5052070;28;20180;-81
2022/03/06 04:56:18;;;;;;;13.43;9.93;;;21.60;95.70;;;;;;5053928;28;20176;-76
2022/03/06 04:58:45;;;;;;;13.23;9.23;;;21.70;95.70;;;;;;5053882;28;20176;-78
2022/03/06 05:01:12;;;;;;;15.87;9.23;;;21.70;95.60;;;;;;5054172;28;20187;-79
2022/03/06 05:03:40;;;;;;;14.57;9.50;;;21.70;95.60;;;;;;5053531;28;20195;-75
2022/03/06 05:06:07;;;;;;;13.87;8.80;;;21.80;95.60;;;;;;5051630;28;20211;-76
2022/03/06 05:08:34;;;;;;;12.90;8.23;;;21.80;95.80;;;;;;5051140;28;20295;-76
2022/03/06 05:11:02;;;;;;;9.50;7.30;;;21.80;95.60;;;;;;5052515;28;20175;-81
2022/03/06 05:13:29;;;;;;;14.80;8.40;;;21.80;95.50;;;;;;5053756;28;20708;-80
2022/03/06 05:15:57;;;;;;;13.17;7.93;;;21.80;95.30;;;;;;5052493;28;20217;-78
2022/03/06 05:18:24;;;;;;;11.87;7.47;;;21.80;95.30;;;;;;5049278;28;20646;-80
2022/03/06 05:20:52;;;;;;;12.07;7.50;;;21.90;95.30;;;;;;5048254;28;20203;-83
2022/03/06 05:23:19;;;;;;;13.43;7.27;;;22.10;95.20;;;;;;5054034;28;20267;-83
2022/03/06 05:25:47;;;;;;;15.07;7.87;;;22.10;95.10;;;;;;5036601;28;20180;-84
2022/03/06 05:28:15;;;;;;;11.43;7.37;;;22.30;95.00;;;;;;5040489;28;20335;-78
2022/03/06 05:30:43;;;;;;;12.83;7.27;;;22.40;94.50;;;;;;5057719;28;20546;-77
2022/03/06 05:33:10;;;;;;;12.50;6.60;;;22.50;94.00;;;;;;5060619;28;20183;-78
2022/03/06 05:35:37;;;;;;;12.73;6.63;;;22.80;93.70;;;;;;5055004;28;20530;-81
2022/03/06 05:38:05;;;;;;;9.70;5.13;;;22.80;93.40;;;;;;5053187;28;20184;-79
2022/03/06 05:40:32;;;;;;;11.90;5.73;;;22.90;92.90;;;;;;5053553;28;20175;-84
2022/03/06 05:42:59;;;;;;;9.43;5.50;;;23.00;92.80;;;;;;5053555;28;20512;-78
2022/03/06 05:45:27;;;;;;;7.90;4.20;;;23.20;92.30;;;;;;5049640;28;20199;-76
2022/03/06 05:47:54;;;;;;;15.50;4.20;;;23.10;92.20;;;;;;5050857;28;20865;-76
2022/03/06 05:50:22;;;;;;;5.73;2.87;;;23.10;92.10;;;;;;5047858;28;20184;-82
2022/03/06 05:52:49;;;;;;;8.43;3.27;;;23.10;91.40;;;;;;5064569;28;20641;-80
2022/03/06 05:55:17;;;;;;;6.50;3.20;;;23.20;91.50;;;;;;5052553;28;20172;-80
2022/03/06 05:57:47;;;;;;;7.33;3.00;;;23.20;91.40;;;;;;5045947;28;20176;-79
2022/03/06 06:00:17;;;;;;;6.87;2.90;;;23.30;91.60;;;;;;5041716;28;20237;-77
2022/03/06 06:02:45;;;;;;;10.23;3.30;;;23.40;91.30;;;;;;5032776;28;20573;-77
2022/03/06 06:05:12;;;;;;;9.80;2.87;;;23.50;91.30;;;;;;5033789;28;20235;-78
2022/03/06 06:07:40;;;;;;;9.10;2.60;;;23.60;90.70;;;;;;5051360;28;20212;-75
2022/03/06 06:10:08;;;;;;;5.83;2.93;;;23.70;89.90;;;;;;5041999;28;20529;-76
2022/03/06 06:12:35;;;;;;;11.13;3.17;;;23.80;90.10;;;;;;5049937;28;20172;-74
2022/03/06 06:15:03;;;;;;;11.30;2.87;;;23.70;90.00;;;;;;5051855;28;20186;-76
2022/03/06 06:17:30;;;;;;;11.87;3.17;;;23.70;90.50;;;;;;5052160;28;20234;-79
2022/03/06 06:20:00;;;;;;;16.00;3.10;;;23.70;90.00;;;;;;5051525;28;21016;-80
2022/03/06 06:22:31;;;;;;;14.00;3.20;;;23.80;90.80;;;;;;5052071;28;20238;-78
2022/03/06 06:24:59;;;;;;;12.77;3.17;;;23.90;90.30;;;;;;5052499;28;20176;-79
2022/03/06 06:27:27;;;;;;;15.30;3.20;;;24.10;90.20;;;;;;5050732;28;20211;-77
2022/03/06 06:29:55;;;;;;;14.23;2.83;;;24.30;89.20;;;;;;5046310;28;20643;-78
2022/03/06 06:32:23;;;;;;;19.30;3.77;;;24.80;88.50;;;;;;5052396;28;20175;-79
2022/03/06 06:34:50;;;;;;;20.23;3.77;;;24.80;87.80;;;;;;5051186;28;20164;-78
2022/03/06 06:37:17;;;;;;;15.20;3.13;;;24.80;87.50;;;;;;5035915;28;20180;-80
2022/03/06 06:39:45;;;;;;;19.73;3.27;;;24.60;88.60;;;;;;5052267;28;20174;-78
2022/03/06 06:42:12;;;;;;;15.40;3.47;;;24.40;89.00;;;;;;5052629;28;20167;-73
2022/03/06 06:44:40;;;;;;;9.50;2.50;;;24.20;89.50;;;;;;5052592;28;20168;-78
2022/03/06 06:47:07;;;;;;;11.93;3.07;;;23.90;90.00;;;;;;5052103;28;20263;-75
2022/03/06 06:49:35;;;;;;;13.20;2.83;;;23.90;90.40;;;;;;5044872;28;20264;-82
2022/03/06 06:52:04;;;;;;;12.83;2.63;;;24.00;90.00;;;;;;5045081;28;20532;-82
2022/03/06 06:54:31;;;;;;;12.83;2.83;;;24.30;89.70;;;;;;5043628;28;20180;-74
2022/03/06 06:57:01;;;;;;;10.73;2.30;;;25.10;86.70;;;;;;5052690;28;20188;-77
2022/03/06 06:59:29;;;;;;;9.87;2.33;;;25.30;84.50;;;;;;5047866;28;20218;-89
2022/03/06 07:01:59;;;;;;;12.10;2.63;;;25.20;85.40;;;;;;5045695;28;20180;-83
2022/03/06 07:04:26;;;;;;;10.53;2.80;;;24.80;85.80;;;;;;5051791;28;20242;-85
2022/03/06 07:06:53;;;;;;;12.50;2.90;;;24.60;86.80;;;;;;5054666;28;20215;-81
2022/03/06 07:09:21;;;;;;;7.17;2.23;;;24.40;87.10;;;;;;5057144;28;20772;-82
2022/03/06 07:11:48;;;;;;;14.43;3.10;;;24.30;87.70;;;;;;5054001;28;20176;-85
2022/03/06 07:14:16;;;;;;;11.97;2.17;;;24.40;88.20;;;;;;5055668;28;20242;-84
2022/03/06 07:16:45;;;;;;;7.43;2.40;;;24.50;86.70;;;;;;5053015;28;20191;-81
2022/03/06 07:19:13;;;;;;;7.97;1.93;;;24.60;86.80;;;;;;5055276;28;20211;-82
2022/03/06 07:21:40;;;;;;;8.93;2.23;;;24.60;86.50;;;;;;5055397;28;20195;-83
2022/03/06 07:24:08;;;;;;;6.73;2.20;;;24.50;87.10;;;;;;5051880;28;20180;-81
2022/03/06 07:26:38;;;;;;;12.67;2.90;;;24.30;87.60;;;;;;5038277;28;20183;-76
2022/03/06 07:29:05;;;;;;;9.27;2.60;;;24.30;87.50;;;;;;5044764;28;20215;-79
2022/03/06 07:31:34;;;;;;;14.27;2.73;;;24.30;88.00;;;;;;5042386;28;20183;-78
2022/03/06 07:34:02;;;;;;;9.90;2.37;;;24.30;87.80;;;;;;5056955;28;20210;-86
2022/03/06 07:36:29;;;;;;;7.53;2.13;;;24.20;88.50;;;;;;5057995;28;20509;-76
2022/03/06 07:38:57;;;;;;;10.97;2.93;;;24.00;88.90;;;;;;5058068;28;20600;-85
2022/03/06 07:41:27;;;;;;;10.83;2.53;;;23.90;89.20;;;;;;5057738;28;20583;-81
2022/03/06 07:43:58;;;;;;;11.70;2.43;;;23.70;89.80;;;;;;5040560;28;20220;-78
2022/03/06 07:46:26;;;;;;;12.70;3.30;;;23.70;90.20;;;;;;5055498;28;20580;-75
2022/03/06 07:48:53;;;;;;;11.47;3.17;;;23.60;90.60;;;;;;5054645;28;20238;-81
2022/03/06 07:51:20;;;;;;;10.77;2.70;;;23.60;90.80;;;;;;5048745;28;20176;-79
2022/03/06 07:53:48;;;;;;;9.30;2.40;;;23.40;90.90;;;;;;5052144;28;20192;-81
2022/03/06 07:56:15;;;;;;;14.23;3.73;;;23.40;91.30;;;;;;5050303;28;20568;-85
2022/03/06 07:58:43;;;;;;;16.47;3.23;;;23.30;91.60;;;;;;5057856;28;20184;-85
2022/03/06 08:01:10;;;;;;;11.80;3.47;;;23.30;91.80;;;;;;5053241;28;20698;-84
2022/03/06 08:03:40;;;;;;;32.27;4.87;;;23.30;92.10;;;;;;5054812;28;20677;-80
2022/03/06 08:06:08;;;;;;;14.50;3.77;;;23.20;92.50;;;;;;5050772;28;20321;-81
2022/03/06 08:08:38;;;;;;;19.93;5.30;;;23.20;92.90;;;;;;5053651;28;20220;-82
2022/03/06 08:11:05;;;;;;;18.73;4.50;;;23.10;93.50;;;;;;5055189;28;20259;-80
2022/03/06 08:13:32;;;;;;;11.07;4.27;;;23.10;93.90;;;;;;5047548;28;20176;-79
2022/03/06 08:16:00;;;;;;;12.43;4.17;;;23.00;94.10;;;;;;5055431;28;20656;-79
2022/03/06 08:18:30;;;;;;;11.23;4.07;;;22.80;94.00;;;;;;5052490;28;20547;-81
2022/03/06 08:20:57;;;;;;;13.37;4.20;;;22.80;94.20;;;;;;5055708;28;20214;-80
2022/03/06 08:23:30;;;;;;;12.80;4.80;;;22.70;94.40;;;;;;5056045;28;20247;-80
2022/03/06 08:25:58;;;;;;;11.87;4.50;;;22.60;94.40;;;;;;5056290;28;20168;-78
2022/03/06 08:28:25;;;;;;;10.13;4.63;;;22.60;94.60;;;;;;5052019;28;20219;-80
2022/03/06 08:30:55;;;;;;;14.43;5.13;;;22.50;94.70;;;;;;5050874;28;20212;-82
2022/03/06 08:33:25;;;;;;;17.07;6.13;;;22.50;94.70;;;;;;5047280;28;20259;-80
2022/03/06 08:35:52;;;;;;;17.90;6.73;;;22.50;94.90;;;;;;5054504;28;20662;-78
2022/03/06 08:38:20;;;;;;;16.97;6.70;;;22.60;95.30;;;;;;5037147;28;20655;-79
2022/03/06 08:40:47;;;;;;;15.27;6.90;;;22.70;95.40;;;;;;5046100;28;20682;-78
2022/03/06 08:43:15;;;;;;;13.30;6.67;;;22.70;95.40;;;;;;5046316;28;20223;-79
2022/03/06 08:45:42;;;;;;;17.93;8.40;;;22.70;95.50;;;;;;5051093;28;20200;-80
2022/03/06 08:48:09;;;;;;;19.20;7.03;;;22.80;95.60;;;;;;5048605;28;20201;-79
2022/03/06 08:50:37;;;;;;;23.90;9.10;;;22.80;95.70;;;;;;5041982;28;20538;-80
2022/03/06 08:53:06;;;;;;;23.60;9.23;;;22.80;95.90;;;;;;5042513;28;20195;-81
2022/03/06 08:55:34;;;;;;;32.07;9.30;;;22.90;96.30;;;;;;5054094;28;20255;-77
2022/03/06 08:58:01;;;;;;;22.70;9.17;;;22.90;96.30;;;;;;5046261;28;20176;-82
2022/03/06 09:00:29;;;;;;;23.53;10.40;;;22.90;96.40;;;;;;5042026;28;20191;-82
2022/03/06 09:02:56;;;;;;;29.13;12.77;;;23.00;96.40;;;;;;5041567;28;20617;-84
2022/03/06 09:05:24;;;;;;;22.17;10.97;;;23.00;96.50;;;;;;5053669;28;20219;-76
2022/03/06 09:07:51;;;;;;;21.47;10.63;;;23.00;96.50;;;;;;5048834;28;20839;-82
2022/03/06 09:10:19;;;;;;;21.07;11.30;;;23.00;96.50;;;;;;5039408;28;20192;-81
2022/03/06 09:12:46;;;;;;;23.50;11.63;;;23.00;96.50;;;;;;5039531;28;20559;-81
2022/03/06 09:15:16;;;;;;;26.77;12.57;;;22.90;96.50;;;;;;5053748;28;20658;-78
2022/03/06 09:17:43;;;;;;;22.77;11.80;;;22.90;96.60;;;;;;5052137;28;20208;-76
2022/03/06 09:20:12;;;;;;;29.20;12.63;;;22.90;96.50;;;;;;5053595;28;20180;-79
2022/03/06 09:22:39;;;;;;;26.50;12.43;;;22.80;96.40;;;;;;5046157;28;20206;-80
2022/03/06 09:25:07;;;;;;;20.20;10.73;;;22.80;96.40;;;;;;5033566;28;20251;-82
2022/03/06 09:27:35;;;;;;;24.60;11.50;;;22.70;96.40;;;;;;5041359;28;20742;-79
2022/03/06 09:30:05;;;;;;;31.60;13.20;;;22.60;96.40;;;;;;5053660;28;20623;-82
2022/03/06 09:32:32;;;;;;;26.90;14.20;;;22.60;96.50;;;;;;5047541;28;20559;-79
2022/03/06 09:35:00;;;;;;;22.33;14.27;;;22.50;96.40;;;;;;5049918;28;20176;-78
2022/03/06 09:37:27;;;;;;;24.13;13.73;;;22.50;96.50;;;;;;5034427;28;20165;-82
2022/03/06 09:39:54;;;;;;;35.87;15.83;;;22.50;96.50;;;;;;5033591;28;20180;-80
2022/03/06 09:42:23;;;;;;;28.50;16.00;;;22.50;96.60;;;;;;5040211;28;20221;-84
2022/03/06 09:44:50;;;;;;;25.50;15.00;;;22.60;96.60;;;;;;5053105;28;20180;-77
2022/03/06 09:47:18;;;;;;;26.20;16.07;;;22.50;96.60;;;;;;5044956;28;20172;-78
2022/03/06 09:49:47;;;;;;;22.00;13.27;;;22.50;96.60;;;;;;5051796;28;20198;-84
2022/03/06 09:52:14;;;;;;;23.47;14.20;;;22.50;96.60;;;;;;5039999;28;20651;-78
2022/03/06 09:54:41;;;;;;;21.13;12.83;;;22.60;96.70;;;;;;5048824;28;20183;-80
2022/03/06 09:57:09;;;;;;;20.43;13.23;;;22.60;96.60;;;;;;5049789;28;20187;-80
2022/03/06 09:59:36;;;;;;;20.70;14.27;;;22.60;96.60;;;;;;5045990;28;20262;-82
2022/03/06 10:02:05;;;;;;;21.90;12.43;;;22.60;96.60;;;;;;5047539;28;20192;-77
2022/03/06 10:04:35;;;;;;;26.83;14.63;;;22.60;96.50;;;;;;5052695;28;20182;-79
2022/03/06 10:07:08;;;;;;;22.53;12.47;;;22.60;96.60;;;;;;5051829;28;20222;-78
2022/03/06 10:09:43;;;;;;;30.93;15.33;;;22.60;96.60;;;;;;5052757;28;20180;-84
2022/03/06 10:12:22;;;;;;;22.67;14.67;;;22.70;96.60;;;;;;5052612;28;20234;-79
2022/03/06 10:14:51;;;;;;;27.00;14.77;;;22.80;96.80;;;;;;5048909;28;20184;-78
2022/03/06 10:17:23;;;;;;;22.63;13.67;;;22.80;96.70;;;;;;5052468;28;20706;-81
2022/03/06 10:19:57;;;;;;;20.77;14.13;;;22.80;96.80;;;;;;5044917;28;20184;-80
2022/03/06 10:22:27;;;;;;;21.87;15.80;;;22.80;96.70;;;;;;5032163;28;20242;-82
2022/03/06 10:25:02;;;;;;;25.20;15.13;;;22.80;96.70;;;;;;5048805;28;20349;-78
2022/03/06 10:27:53;;;;;;;22.43;14.20;;;22.80;96.60;;;;;;5049710;28;20211;-78
2022/03/06 10:30:26;;;;;;;18.73;14.23;;;22.80;96.60;;;;;;5049060;28;20230;-75
2022/03/06 10:32:54;;;;;;;23.13;13.50;;;22.80;96.60;;;;;;5035407;28;20183;-78
2022/03/06 10:35:36;;;;;;;20.33;16.10;;;22.80;96.50;;;;;;5055770;28;20191;-77
2022/03/06 10:38:28;;;;;;;17.53;13.87;;;22.80;96.40;;;;;;5032141;28;20630;-76
2022/03/06 10:40:57;;;;;;;14.97;12.03;;;22.80;96.30;;;;;;5048405;28;20188;-78
2022/03/06 10:43:30;;;;;;;23.33;11.20;;;22.80;96.20;;;;;;5040230;28;20176;-77
2022/03/06 10:46:13;;;;;;;22.10;17.37;;;22.80;96.20;;;;;;5047320;28;20184;-78
2022/03/06 10:48:42;;;;;;;25.40;13.93;;;22.80;96.20;;;;;;5048290;28;20238;-78
2022/03/06 10:51:12;;;;;;;23.47;15.07;;;22.80;96.30;;;;;;5044313;28;20176;-80
2022/03/06 10:53:40;;;;;;;20.23;12.17;;;22.80;96.30;;;;;;5052973;28;20192;-80
2022/03/06 10:56:11;;;;;;;25.77;12.73;;;22.80;96.30;;;;;;5056381;28;20255;-76
2022/03/06 10:58:42;;;;;;;22.50;16.37;;;22.80;96.20;;;;;;5056368;28;20528;-77
2022/03/06 11:01:10;;;;;;;22.73;15.53;;;22.80;96.10;;;;;;5056606;28;20700;-78
2022/03/06 11:03:37;;;;;;;21.97;11.00;;;22.80;96.10;;;;;;5055513;28;20233;-77
2022/03/06 11:06:06;;;;;;;19.53;14.17;;;22.80;96.10;;;;;;5053836;28;20211;-81
2022/03/06 11:08:34;;;;;;;21.83;11.23;;;22.80;96.10;;;;;;5055557;28;20235;-76
2022/03/06 11:11:06;;;;;;;25.80;13.97;;;22.90;96.10;;;;;;5056740;28;20634;-75
2022/03/06 11:13:34;;;;;;;20.60;13.17;;;22.90;96.10;;;;;;5051108;28;20194;-75
2022/03/06 11:16:02;;;;;;;25.73;13.50;;;22.90;96.20;;;;;;5042995;28;20199;-77
2022/03/06 11:18:31;;;;;;;21.53;12.43;;;22.90;96.10;;;;;;5055150;28;20184;-77
2022/03/06 11:21:00;;;;;;;21.90;10.93;;;22.90;96.10;;;;;;5047626;28;20187;-80
2022/03/06 11:23:36;;;;;;;18.80;10.80;;;22.90;96.20;;;;;;5053448;28;20694;-77
2022/03/06 11:26:35;;;;;;;27.07;11.07;;;23.00;96.10;;;;;;5055485;28;20187;-76
2022/03/06 11:29:31;;;;;;;21.00;10.47;;;23.00;96.20;;;;;;5048754;28;20240;-78
2022/03/06 11:32:05;;;;;;;20.50;10.50;;;23.00;96.10;;;;;;5040130;28;20192;-82
2022/03/06 11:34:35;;;;;;;19.87;10.20;;;22.90;96.20;;;;;;5055585;28;20175;-77
2022/03/06 11:37:12;;;;;;;28.67;11.40;;;23.00;96.30;;;;;;5055350;28;20582;-78
2022/03/06 11:39:39;;;;;;;21.07;10.10;;;22.90;96.40;;;;;;5055582;28;20516;-82
2022/03/06 11:42:09;;;;;;;26.47;10.27;;;22.90;96.50;;;;;;5056074;28;20183;-79
2022/03/06 11:44:49;;;;;;;23.07;9.70;;;22.90;96.50;;;;;;5056028;28;20198;-81
2022/03/06 11:47:37;;;;;;;22.10;9.27;;;22.90;96.60;;;;;;5046350;28;20184;-77
2022/03/06 11:50:06;;;;;;;19.80;9.23;;;22.90;96.70;;;;;;5055332;28;20188;-80
2022/03/06 11:52:42;;;;;;;17.10;9.47;;;22.90;96.80;;;;;;5054951;28;20191;-75
2022/03/06 11:55:31;;;;;;;21.93;11.37;;;22.90;96.80;;;;;;5054551;28;20183;-82
2022/03/06 11:57:59;;;;;;;20.47;11.47;;;22.90;96.70;;;;;;5034101;28;20191;-79
2022/03/06 12:00:30;;;;;;;15.77;10.50;;;22.90;96.70;;;;;;5053289;28;20280;-81
2022/03/06 12:02:59;;;;;;;19.97;11.27;;;22.80;96.70;;;;;;5055191;28;20188;-82
2022/03/06 12:05:46;;;;;;;23.13;11.27;;;22.80;96.80;;;;;;5054826;28;20222;-80
2022/03/06 12:08:14;;;;;;;21.70;10.57;;;22.70;96.80;;;;;;5033686;28;20220;-84
2022/03/06 12:10:43;;;;;;;22.90;11.67;;;22.70;96.90;;;;;;5017381;28;20227;-76
2022/03/06 12:13:29;;;;;;;17.43;12.10;;;22.70;96.90;;;;;;5035501;28;20179;-77
2022/03/06 12:16:05;;;;;;;19.57;13.10;;;22.70;96.90;;;;;;5037961;28;20168;-78
2022/03/06 12:18:32;;;;;;;13.87;11.00;;;22.60;97.00;;;;;;5054968;28;20226;-78
2022/03/06 12:21:01;;;;;;;22.07;13.57;;;22.60;96.90;;;;;;5054566;28;20183;-78
2022/03/06 12:23:30;;;;;;;22.40;12.57;;;22.60;97.00;;;;;;5054602;28;20180;-77
2022/03/06 12:26:00;;;;;;;31.57;14.00;;;22.60;97.10;;;;;;5054746;28;20204;-78
2022/03/06 12:28:39;;;;;;;31.97;12.53;;;22.70;97.10;;;;;;5054647;28;20204;-78
2022/03/06 12:31:30;;;;;;;29.03;14.27;;;22.80;97.20;;;;;;5054672;28;20168;-76
2022/03/06 12:33:58;;;;;;;32.97;13.90;;;22.80;97.30;;;;;;5054010;28;20184;-78
2022/03/06 12:36:26;;;;;;;35.50;12.23;;;22.90;97.30;;;;;;5054079;28;20176;-77
2022/03/06 12:38:59;;;;;;;41.53;12.27;;;22.90;97.30;;;;;;5054463;28;20187;-79
2022/03/06 12:41:27;;;;;;;33.83;10.90;;;22.90;97.30;;;;;;5053601;28;20178;-77
2022/03/06 12:44:01;;;;;;;33.40;11.57;;;22.90;97.30;;;;;;5053969;28;20195;-76